• Join FlightAware (Why Join?)
  • Login
  • US Flag 
09:07PM EST


 

Airport Tracker/Info


-or-


 

Live Flight TrackerFlight Track Log ✈ N762NC ✈ 19-Aug-2013 ✈ KATL - KDAY

Flight Track Log - Related Links

Times and Time Zones

All times are in EDT time to prevent confusion due to time zone crossing. See the N762NC flight status page for this flight to view local times or setup timezone preferences in your user account.

Time Position Orientation Groundspeed Altitude Reporting Facility
EDT Latitude Longitude Course Direction KTS MPH feet Rate Location/Type
08:28AM 33.6500 -84.3667 North 202 232 2,500  Level Atlanta TRACON
08:29AM 33.6833 -84.2667 68° East 288 331 4,700 2,300 Climbing Atlanta TRACON
08:30AM 33.9773 -84.3432 12° North  Level FlightAware Approximate
08:30AM 33.7500 -84.2500 12° North 291 335 7,100  Level Atlanta TRACON
08:31AM 34.0894 -84.3158 North  Level FlightAware Approximate
08:31AM 33.8333 -84.2500 360° North 308 354 9,200  Level Atlanta TRACON
08:32AM 34.2045 -84.3000 North  Level FlightAware Approximate
08:33AM 34.3205 -84.3000 North  Level FlightAware Approximate
08:33AM 34.0592 -84.2769 354° North 360 414 12,400  Level Atlanta Center
08:34AM 34.1614 -84.3025 348° North 375 432 14,300 1,800 Climbing Atlanta Center
08:35AM 34.2697 -84.3203 352° North 380 437 16,000 1,650 Climbing Atlanta Center
08:36AM 34.3825 -84.3333 355° North 398 458 17,600 1,400 Climbing Atlanta Center
08:37AM 34.5078 -84.3386 358° North 404 465 18,800 1,300 Climbing Atlanta Center
08:38AM 34.6286 -84.3367 North 414 476 20,200 1,200 Climbing Atlanta Center
08:39AM 34.7497 -84.3422 358° North 424 488 21,200 1,100 Climbing Atlanta Center
08:40AM 34.8769 -84.3400 North 438 504 22,400 1,150 Climbing Atlanta Center
08:41AM 34.9856 -84.3506 355° North 445 512 23,500 1,000 Climbing Atlanta Center
08:42AM 35.1169 -84.3561 358° North 445 512 24,400 900 Climbing Atlanta Center
08:43AM 35.2483 -84.3517 North 458 527 25,300 850 Climbing Atlanta Center
08:44AM 35.3842 -84.3572 358° North 470 541 26,100 850 Climbing Atlanta Center
08:45AM 35.5197 -84.3653 357° North 480 552 27,000 950 Climbing Atlanta Center
08:46AM 35.6739 -84.3686 359° North 489 563 28,000 950 Climbing Atlanta Center
08:47AM 35.8139 -84.3589 North 495 570 28,900 950 Climbing Atlanta Center
08:48AM 35.9517 -84.3439 North 495 570 29,900 413 Climbing Atlanta Center
08:50AM 36.1764 -84.3375 North 498 573 30,000 37 Climbing Indianapolis Center
08:51AM 36.3161 -84.3275 North 504 580 30,000  Level Indianapolis Center
08:52AM 36.4550 -84.3133 North 501 577 30,000  Level Indianapolis Center
08:53AM 36.6083 -84.3086 North 497 572 30,000  Level Indianapolis Center
08:54AM 36.7469 -84.2992 North 497 572 30,000  Level Indianapolis Center
08:55AM 36.8847 -84.2856 North 495 570 30,000  Level Indianapolis Center
08:56AM 37.0225 -84.2839 North 492 566 30,000 -49 Level Indianapolis Center
08:57AM 37.1600 -84.2719 North 494 568 29,900  Descending Indianapolis Center
08:58AM 37.3178 -84.2586 North 486 559 30,000 48 Climbing Indianapolis Center
08:59AM 37.4519 -84.2567 North 480 552 30,000  Level Indianapolis Center
09:00AM 37.5856 -84.2458 North 477 549 30,000 -49 Level Indianapolis Center
09:01AM 37.7192 -84.2442 North 477 549 29,900 -439 Descending Indianapolis Center
09:02AM 37.8494 -84.2411 North 467 537 29,100 -774 Descending Indianapolis Center
09:03AM 37.9772 -84.2328 North 460 529 28,300 -774 Descending Indianapolis Center
09:04AM 38.1014 -84.2500 354° North 447 514 27,500 -2,000 Descending Indianapolis Center
09:05AM 38.2456 -84.2611 357° North 441 507 24,200 -3,073 Descending Indianapolis Center
09:06AM 38.3625 -84.2769 354° North 424 488 21,200 -2,903 Descending Indianapolis Center
09:07AM 38.4731 -84.3078 348° North 407 468 18,200 -2,806 Descending Indianapolis Center
09:09AM 38.5833 -84.3189 355° North 397 457 15,400 -2,732 Descending Indianapolis Center
09:10AM 38.6981 -84.3383 352° North 383 441 12,600 -1,707 Descending Indianapolis Center
09:11AM 38.7992 -84.3747 344° North 375 432 11,900 -290 Descending Indianapolis Center
09:12AM 38.8989 -84.4089 345° North 368 423 12,000 48 Climbing Indianapolis Center
09:13AM 38.9978 -84.4353 348° North 361 415 12,000 -49 Level Indianapolis Center
09:14AM 39.0947 -84.4728 343° North 362 417 11,900 -495 Descending Indianapolis Center
09:14AM 39.1739 -84.5111 339° North 358 412 11,100 -944 Descending Indianapolis Center
09:15AM 39.2672 -84.4872 11° North 369 425 10,200 -545 Descending Indianapolis Center
09:16AM 39.3647 -84.4236 27° Northeast 362 417 10,000 -98 Descending Indianapolis Center
09:17AM 39.4428 -84.3617 31° Northeast 322 371 10,000 -443 Level Indianapolis Center
09:18AM 39.5142 -84.3067 31° Northeast 290 334 9,100 -1,190 Descending Indianapolis Center
09:19AM 39.5878 -84.2872 12° North 273 314 7,600 -1,388 Descending Indianapolis Center
09:21AM 39.6608 -84.2919 357° North 261 300 6,300 -787 Descending Indianapolis Center
09:22AM 39.7269 -84.2658 17° North 254 292 6,000 -148 Descending Indianapolis Center
09:23AM 39.7956 -84.2344 19° North 237 273 6,000  Level Indianapolis Center
09:24AM 39.8319 -84.1672 55° Northeast 228 262 6,000 -793 Level Indianapolis Center
09:25AM 39.8711 -84.0950 55° Northeast 236 272 4,400 -1,388 Descending Indianapolis Center
09:26AM 39.9100 -84.0253 54° Northeast 231 266 3,200 -738 Descending Indianapolis Center
09:27AM 39.9556 -83.9925 29° Northeast 204 235 2,900 -79 Descending Indianapolis Center
09:28AM 39.9814 -84.0753 292° West 203 234 3,000 -197 Climbing Indianapolis Center
09:29AM 39.9556 -84.1339 240° Southwest 190 219 2,400 -710 Descending Indianapolis Center
09:30AM 39.9400 -84.1619 234° Southwest 170 196 1,900 -774 Descending Indianapolis Center
09:30AM 39.9292 -84.1819 235° Southwest 176 203 1,600 -516 Descending Indianapolis Center
09:31AM 39.9064 -84.2231 234° Southwest 166 191 1,100 -484 Descending Indianapolis Center